createdAt,value
2023-02-28T00:03:53.603Z,0.64
2023-02-28T00:04:53.582Z,0.53
2023-02-28T00:05:53.584Z,0.52
2023-02-28T00:06:53.560Z,0.65
2023-02-28T00:07:53.563Z,0.48
2023-02-28T00:08:53.572Z,0.51
2023-02-28T00:09:53.535Z,0.57
2023-02-28T00:10:53.538Z,0.61
2023-02-28T00:11:53.518Z,0.61
2023-02-28T00:13:06.763Z,0.62
2023-02-28T00:13:53.491Z,0.61
2023-02-28T00:14:53.492Z,0.51
2023-02-28T00:15:53.471Z,0.51
2023-02-28T00:16:53.498Z,0.61
2023-02-28T00:17:53.820Z,0.53
2023-02-28T00:18:53.460Z,0.60
2023-02-28T00:19:53.434Z,0.67
2023-02-28T00:20:53.416Z,0.65
2023-02-28T00:21:53.416Z,0.58
2023-02-28T00:22:53.423Z,0.70
2023-02-28T00:23:53.397Z,0.68
2023-02-28T00:24:53.383Z,0.70
2023-02-28T00:27:26.265Z,0.61
2023-02-28T00:28:26.307Z,0.75
2023-02-28T00:29:26.266Z,0.70
2023-02-28T00:30:26.281Z,0.67
2023-02-28T00:31:26.600Z,0.71
2023-02-28T00:32:26.218Z,0.71
2023-02-28T00:33:26.261Z,0.68
2023-02-28T00:34:26.258Z,0.67
2023-02-28T00:35:26.222Z,0.68
2023-02-28T00:36:26.203Z,0.82
2023-02-28T00:37:26.170Z,0.78
2023-02-28T00:38:26.175Z,0.70
2023-02-28T00:39:26.145Z,0.79
2023-02-28T00:40:26.150Z,0.76
2023-02-28T00:41:26.348Z,0.76
2023-02-28T00:42:26.142Z,0.68
2023-02-28T00:43:26.126Z,0.79
2023-02-28T00:44:26.104Z,0.71
2023-02-28T00:45:26.081Z,0.72
2023-02-28T00:46:26.109Z,0.71
2023-02-28T00:47:26.076Z,0.76
2023-02-28T00:48:26.081Z,0.70
2023-02-28T00:49:26.040Z,0.70
2023-02-28T00:50:26.038Z,0.68
2023-02-28T00:51:26.085Z,0.70
2023-02-28T00:52:26.015Z,0.65
2023-02-28T00:53:26.024Z,0.70
2023-02-28T00:54:26.003Z,0.57
2023-02-28T00:55:25.976Z,0.58
2023-02-28T00:56:25.968Z,0.61
2023-02-28T00:57:25.955Z,0.58
2023-02-28T00:58:25.978Z,0.48
2023-02-28T00:59:25.971Z,0.57
2023-02-28T01:00:25.933Z,0.51
2023-02-28T01:01:25.975Z,0.45
2023-02-28T01:02:25.915Z,0.48
2023-02-28T01:03:25.909Z,0.48
2023-02-28T01:04:25.937Z,0.43
2023-02-28T01:05:25.882Z,0.49
2023-02-28T01:06:25.886Z,0.43
2023-02-28T01:07:25.862Z,0.52
2023-02-28T01:08:25.869Z,0.45
2023-02-28T01:09:25.837Z,0.45
2023-02-28T01:10:25.830Z,0.48
2023-02-28T01:11:25.871Z,0.43
2023-02-28T01:12:25.813Z,0.41
2023-02-28T01:13:25.854Z,0.42
2023-02-28T01:14:25.789Z,0.41
2023-02-28T01:15:25.850Z,0.36
2023-02-28T01:16:25.771Z,0.41
2023-02-28T01:17:25.755Z,0.34
2023-02-28T01:18:25.759Z,0.41
2023-02-28T01:19:25.762Z,0.39
2023-02-28T01:20:25.720Z,0.24
2023-02-28T01:21:25.711Z,0.30
2023-02-28T01:22:25.737Z,0.34
2023-02-28T01:23:25.734Z,0.31
2023-02-28T01:24:25.691Z,0.23
2023-02-28T01:25:25.699Z,0.30
2023-02-28T01:26:25.671Z,0.23
2023-02-28T01:27:25.658Z,0.30
2023-02-28T01:28:25.650Z,0.33
2023-02-28T01:29:25.624Z,0.23
2023-02-28T01:30:25.620Z,0.24
2023-02-28T01:31:25.631Z,0.21
2023-02-28T01:32:25.611Z,0.25
2023-02-28T01:33:25.603Z,0.21
2023-02-28T01:34:25.580Z,0.18
2023-02-28T01:35:25.573Z,0.16
2023-02-28T01:36:25.568Z,0.21
2023-02-28T01:37:25.544Z,0.21
2023-02-28T01:38:25.534Z,0.25
2023-02-28T01:39:25.543Z,0.25
2023-02-28T01:40:25.515Z,0.24
2023-02-28T01:41:25.543Z,0.23
2023-02-28T01:42:25.481Z,0.18
2023-02-28T01:43:25.479Z,0.30
2023-02-28T01:44:25.496Z,0.25
2023-02-28T01:45:25.466Z,0.25
2023-02-28T01:46:25.495Z,0.21
2023-02-28T01:47:25.430Z,0.23
2023-02-28T01:48:25.429Z,0.24
2023-02-28T01:49:25.430Z,0.24
2023-02-28T01:50:25.399Z,0.24
2023-02-28T01:51:25.387Z,0.21
2023-02-28T01:52:25.391Z,0.25
2023-02-28T01:53:25.378Z,0.18
2023-02-28T01:54:25.405Z,0.27
2023-02-28T01:55:25.354Z,0.38
2023-02-28T01:56:25.350Z,0.24
2023-02-28T01:57:25.342Z,0.27
2023-02-28T01:58:25.346Z,0.27
2023-02-28T01:59:25.325Z,0.28
2023-02-28T02:00:25.309Z,0.24
2023-02-28T02:01:27.126Z,0.24
2023-02-28T02:05:22.472Z,0.21
2023-02-28T02:05:44.469Z,0.18
2023-02-28T02:06:44.474Z,0.23
2023-02-28T02:07:44.463Z,0.27
2023-02-28T02:08:44.453Z,0.30
2023-02-28T02:09:44.520Z,0.30
2023-02-28T02:10:44.433Z,0.23
2023-02-28T02:11:44.412Z,0.21
2023-02-28T02:12:44.410Z,0.30
2023-02-28T02:13:44.390Z,0.34
2023-02-28T02:14:44.393Z,0.27
2023-02-28T02:15:44.390Z,0.31
2023-02-28T02:16:44.362Z,0.27
2023-02-28T02:17:44.353Z,0.34
2023-02-28T02:18:44.341Z,0.31
2023-02-28T02:19:44.354Z,0.33
2023-02-28T02:20:44.317Z,0.36
2023-02-28T02:21:44.306Z,0.33
2023-02-28T02:22:44.305Z,0.30
2023-02-28T02:23:44.302Z,0.36
2023-02-28T02:24:44.297Z,0.31
2023-02-28T02:25:44.278Z,0.33
2023-02-28T02:26:44.259Z,0.36
2023-02-28T02:27:44.256Z,0.34
2023-02-28T02:28:44.233Z,0.27
2023-02-28T02:29:44.244Z,0.34
2023-02-28T02:30:44.214Z,0.25
2023-02-28T02:31:44.269Z,0.31
2023-02-28T02:32:44.200Z,0.38
2023-02-28T02:33:44.193Z,0.31
2023-02-28T02:34:44.187Z,0.36
2023-02-28T02:35:44.213Z,0.28
2023-02-28T02:36:44.155Z,0.31
2023-02-28T02:37:44.138Z,0.39
2023-02-28T02:38:44.150Z,0.34
2023-02-28T02:39:44.132Z,0.30
2023-02-28T02:40:44.116Z,0.41
2023-02-28T02:41:44.092Z,0.41
2023-02-28T02:42:44.089Z,0.33
2023-02-28T02:43:44.084Z,0.41
2023-02-28T02:44:44.082Z,0.42
2023-02-28T02:45:44.085Z,0.38
2023-02-28T02:46:44.151Z,0.46
2023-02-28T02:47:44.026Z,0.38
2023-02-28T02:48:44.020Z,0.39
2023-02-28T02:49:44.020Z,0.48
2023-02-28T02:50:44.004Z,0.36
2023-02-28T02:51:43.990Z,0.36
2023-02-28T02:52:43.982Z,0.41
2023-02-28T02:53:43.974Z,0.39
2023-02-28T02:54:43.981Z,0.41
2023-02-28T02:55:43.940Z,0.34
2023-02-28T02:56:43.942Z,0.43
2023-02-28T02:57:43.933Z,0.49
2023-02-28T02:58:43.941Z,0.43
2023-02-28T02:59:43.920Z,0.46
2023-02-28T03:00:43.909Z,0.42
2023-02-28T03:01:43.875Z,0.42
2023-02-28T03:02:43.871Z,0.43
2023-02-28T03:03:43.921Z,0.36
2023-02-28T03:04:43.860Z,0.38
2023-02-28T03:05:43.840Z,0.52
2023-02-28T03:06:43.826Z,0.49
2023-02-28T03:07:43.821Z,0.45
2023-02-28T03:08:43.808Z,0.53
2023-02-28T03:09:43.815Z,0.48
2023-02-28T03:10:43.791Z,0.45
2023-02-28T03:11:43.775Z,0.57
2023-02-28T03:12:43.774Z,0.49
2023-02-28T03:13:43.786Z,0.53
2023-02-28T03:14:43.740Z,0.51
2023-02-28T03:15:43.736Z,0.43
2023-02-28T03:16:43.722Z,0.48
2023-02-28T03:17:43.706Z,0.46
2023-02-28T03:18:43.706Z,0.48
2023-02-28T03:19:43.685Z,0.49
2023-02-28T03:20:43.696Z,0.49
2023-02-28T03:21:43.662Z,0.43
2023-02-28T03:22:43.659Z,0.51
2023-02-28T03:23:43.662Z,0.48
2023-02-28T03:24:43.646Z,0.49
2023-02-28T03:25:43.638Z,0.45
2023-02-28T03:26:43.676Z,0.41
2023-02-28T03:27:43.630Z,0.52
2023-02-28T03:28:43.609Z,0.51
2023-02-28T03:29:43.592Z,0.43
2023-02-28T03:30:43.625Z,0.45
2023-02-28T03:31:43.613Z,0.49
2023-02-28T03:32:43.586Z,0.39
2023-02-28T03:33:43.556Z,0.36
2023-02-28T03:34:43.545Z,0.41
2023-02-28T03:35:43.548Z,0.51
2023-02-28T03:36:43.534Z,0.46
2023-02-28T03:37:43.509Z,0.49
2023-02-28T03:38:43.507Z,0.51
2023-02-28T03:39:43.506Z,0.45
2023-02-28T03:40:43.490Z,0.49
2023-02-28T03:41:43.469Z,0.51
2023-02-28T03:42:43.462Z,0.49
2023-02-28T03:43:43.455Z,0.43
2023-02-28T03:44:43.443Z,0.48
2023-02-28T03:45:43.478Z,0.39
2023-02-28T03:46:43.427Z,0.36
2023-02-28T03:47:43.400Z,0.48
2023-02-28T03:48:43.395Z,0.46
2023-02-28T03:49:43.391Z,0.51
2023-02-28T03:50:43.390Z,0.48
2023-02-28T03:51:43.401Z,0.49
2023-02-28T03:52:43.354Z,0.42
2023-02-28T03:53:44.534Z,0.53
2023-02-28T03:54:44.524Z,0.48
2023-02-28T03:55:44.521Z,0.57
2023-02-28T03:56:44.502Z,0.51
2023-02-28T03:57:44.529Z,0.48
2023-02-28T03:58:44.512Z,0.46
2023-02-28T03:59:44.460Z,0.49
2023-02-28T04:00:44.471Z,0.49
2023-02-28T04:01:44.447Z,0.53
2023-02-28T04:02:44.403Z,0.43
2023-02-28T04:03:44.415Z,0.49
2023-02-28T04:04:44.429Z,0.45
2023-02-28T04:05:44.424Z,0.46
2023-02-28T04:06:44.380Z,0.46
2023-02-28T04:07:44.396Z,0.53
2023-02-28T04:08:44.370Z,0.49
2023-02-28T04:09:44.366Z,0.51
2023-02-28T04:10:44.382Z,0.53
2023-02-28T04:11:44.379Z,0.48
2023-02-28T04:12:44.344Z,0.41
2023-02-28T04:13:46.137Z,0.42
2023-02-28T04:14:44.336Z,0.52
2023-02-28T04:15:44.366Z,0.58
2023-02-28T04:16:44.392Z,0.48
2023-02-28T04:17:44.272Z,0.51
2023-02-28T04:18:44.295Z,0.53
2023-02-28T04:19:44.263Z,0.46
2023-02-28T04:20:44.269Z,0.51
2023-02-28T04:21:44.238Z,0.49
2023-02-28T04:22:44.230Z,0.52
2023-02-28T04:23:44.231Z,0.52
2023-02-28T04:24:44.193Z,0.57
2023-02-28T04:25:44.263Z,0.53
2023-02-28T04:26:44.204Z,0.53
2023-02-28T04:27:44.254Z,0.52
2023-02-28T04:28:44.190Z,0.48
2023-02-28T04:29:44.157Z,0.53
2023-02-28T04:30:44.191Z,0.60
2023-02-28T04:31:44.170Z,0.51
2023-02-28T04:32:44.200Z,0.49
2023-02-28T04:33:44.113Z,0.48
2023-02-28T04:34:44.104Z,0.43
2023-02-28T04:35:44.161Z,0.52
2023-02-28T04:36:44.084Z,0.48
2023-02-28T04:37:44.082Z,0.39
2023-02-28T04:38:44.077Z,0.57
2023-02-28T04:39:44.107Z,0.49
2023-02-28T04:40:44.091Z,0.46
2023-02-28T04:41:44.034Z,0.49
2023-02-28T04:42:44.039Z,0.57
2023-02-28T04:43:44.015Z,0.41
2023-02-28T04:44:44.035Z,0.45
2023-02-28T04:45:44.098Z,0.41
2023-02-28T04:46:44.005Z,0.42
2023-02-28T04:47:43.987Z,0.46
2023-02-28T04:48:43.982Z,0.46
2023-02-28T04:49:43.958Z,0.45
2023-02-28T04:50:44.009Z,0.46
2023-02-28T04:51:43.944Z,0.41
2023-02-28T04:52:43.930Z,0.46
2023-02-28T04:53:43.936Z,0.38
2023-02-28T04:54:43.924Z,0.48
2023-02-28T04:55:43.899Z,0.45
2023-02-28T04:56:43.917Z,0.38
2023-02-28T04:57:43.907Z,0.41
2023-02-28T04:58:43.892Z,0.43
2023-02-28T04:59:43.861Z,0.43
2023-02-28T05:00:43.852Z,0.42
2023-02-28T05:01:43.859Z,0.33
2023-02-28T05:02:43.813Z,0.43
2023-02-28T05:03:43.816Z,0.51
2023-02-28T05:04:43.858Z,0.46
2023-02-28T05:05:43.828Z,0.43
2023-02-28T05:06:43.863Z,0.42
2023-02-28T05:07:43.817Z,0.36
2023-02-28T05:08:43.814Z,0.43
2023-02-28T05:09:43.802Z,0.46
2023-02-28T05:10:43.797Z,0.48
2023-02-28T05:11:43.746Z,0.39
2023-02-28T05:12:43.740Z,0.41
2023-02-28T05:13:43.718Z,0.48
2023-02-28T05:14:43.728Z,0.39
2023-02-28T05:15:43.728Z,0.46
2023-02-28T05:16:43.730Z,0.46
2023-02-28T05:17:43.701Z,0.43
2023-02-28T05:18:43.767Z,0.38
2023-02-28T05:19:43.683Z,0.39
2023-02-28T05:20:43.671Z,0.28
2023-02-28T05:21:43.644Z,0.41
2023-02-28T05:22:43.642Z,0.43
2023-02-28T05:23:43.639Z,0.39
2023-02-28T05:24:43.665Z,0.34
2023-02-28T05:25:43.609Z,0.39
2023-02-28T05:26:43.677Z,0.39
2023-02-28T05:27:43.600Z,0.30
2023-02-28T05:28:43.580Z,0.43
2023-02-28T05:29:43.558Z,0.34
2023-02-28T05:30:43.554Z,0.43
2023-02-28T05:31:43.749Z,0.33
2023-02-28T05:32:43.535Z,0.36
2023-02-28T05:33:43.548Z,0.38
2023-02-28T05:34:43.534Z,0.43
2023-02-28T05:35:43.619Z,0.31
2023-02-28T05:36:43.524Z,0.39
2023-02-28T05:37:43.463Z,0.34
2023-02-28T05:38:43.513Z,0.43
2023-02-28T05:39:43.461Z,0.38
2023-02-28T05:40:43.490Z,0.34
2023-02-28T05:41:43.517Z,0.43
2023-02-28T05:42:43.430Z,0.45
2023-02-28T05:43:43.447Z,0.42
2023-02-28T05:44:43.421Z,0.39
2023-02-28T05:45:43.560Z,0.43
2023-02-28T05:46:43.407Z,0.42
2023-02-28T05:47:43.449Z,0.46
2023-02-28T05:48:43.463Z,0.36
2023-02-28T05:49:43.377Z,0.49
2023-02-28T05:50:43.395Z,0.36
2023-02-28T05:51:43.410Z,0.42
2023-02-28T05:52:43.361Z,0.42
2023-02-28T05:53:43.318Z,0.48
2023-02-28T05:54:43.354Z,0.38
2023-02-28T05:55:43.311Z,0.45
2023-02-28T05:56:43.337Z,0.49
2023-02-28T05:57:43.313Z,0.42
2023-02-28T05:58:43.305Z,0.41
2023-02-28T05:59:43.261Z,0.57
2023-02-28T06:00:43.256Z,0.46
2023-02-28T06:01:43.307Z,0.45
2023-02-28T06:02:43.250Z,0.49
2023-02-28T06:03:43.345Z,0.45
2023-02-28T06:04:43.194Z,0.42
2023-02-28T06:05:43.256Z,0.46
2023-02-28T06:06:43.246Z,0.43
2023-02-28T06:07:43.234Z,0.52
2023-02-28T06:08:43.183Z,0.43
2023-02-28T06:09:43.199Z,0.41
2023-02-28T06:10:43.181Z,0.38
2023-02-28T06:11:43.179Z,0.51
2023-02-28T06:12:43.190Z,0.45
2023-02-28T06:13:43.105Z,0.48
2023-02-28T06:14:43.124Z,0.46
2023-02-28T06:15:43.148Z,0.45
2023-02-28T06:16:43.135Z,0.46
2023-02-28T06:17:43.109Z,0.45
2023-02-28T06:18:43.094Z,0.41
2023-02-28T06:19:43.128Z,0.39
2023-02-28T06:20:43.047Z,0.42
2023-02-28T06:21:43.059Z,0.45
2023-02-28T06:22:43.077Z,0.46
2023-02-28T06:23:43.102Z,0.41
2023-02-28T06:24:43.092Z,0.38
2023-02-28T06:25:43.056Z,0.45
2023-02-28T06:26:43.040Z,0.45
2023-02-28T06:27:43.005Z,0.45
2023-02-28T06:28:42.984Z,0.38
2023-02-28T06:29:42.985Z,0.46
2023-02-28T06:30:44.473Z,0.43
2023-02-28T06:31:43.012Z,0.46
2023-02-28T06:32:42.992Z,0.42
2023-02-28T06:33:42.909Z,0.43
2023-02-28T06:34:42.901Z,0.48
2023-02-28T06:35:42.955Z,0.52
2023-02-28T06:36:42.859Z,0.57
2023-02-28T06:37:42.924Z,0.48
2023-02-28T06:38:42.897Z,0.58
2023-02-28T06:39:42.917Z,0.52
2023-02-28T06:40:42.872Z,0.53
2023-02-28T06:41:54.647Z,0.72
2023-02-28T06:42:44.859Z,0.65
2023-02-28T06:43:42.842Z,0.67
2023-02-28T06:44:42.833Z,0.72
2023-02-28T06:45:42.834Z,0.72
2023-02-28T06:46:42.875Z,0.79
2023-02-28T06:47:42.812Z,0.70
2023-02-28T06:48:42.788Z,0.75
2023-02-28T06:49:42.948Z,0.75
2023-02-28T06:50:42.775Z,0.67
2023-02-28T06:51:42.767Z,0.80
2023-02-28T06:52:42.796Z,0.76
2023-02-28T06:53:42.762Z,0.76
2023-02-28T06:54:42.727Z,0.90
2023-02-28T06:55:42.742Z,1.03
2023-02-28T06:56:42.720Z,1.04
2023-02-28T06:57:42.728Z,1.08
2023-02-28T06:58:42.682Z,1.18
2023-02-28T06:59:43.030Z,1.25
2023-02-28T07:00:42.760Z,1.24
2023-02-28T07:01:42.730Z,1.25
2023-02-28T07:02:42.718Z,1.33
2023-02-28T07:03:42.686Z,1.40
2023-02-28T07:04:43.021Z,1.36
2023-02-28T07:05:42.686Z,1.32
2023-02-28T07:06:42.701Z,1.34
2023-02-28T07:07:42.669Z,1.40
2023-02-28T07:08:42.625Z,1.42
2023-02-28T07:09:42.627Z,1.60
2023-02-28T07:10:42.592Z,1.44
2023-02-28T07:11:42.559Z,1.37
2023-02-28T07:12:42.635Z,1.44
2023-02-28T07:13:42.644Z,1.39
2023-02-28T07:14:42.527Z,1.37
2023-02-28T07:15:44.262Z,1.44
2023-02-28T07:16:43.502Z,1.47
2023-02-28T07:17:42.501Z,1.51
2023-02-28T07:18:42.608Z,1.62
2023-02-28T07:19:42.470Z,1.64
2023-02-28T07:20:42.487Z,1.79
2023-02-28T07:21:42.454Z,1.87
2023-02-28T07:22:42.470Z,1.79
2023-02-28T07:23:42.425Z,1.85
2023-02-28T07:24:42.428Z,1.91
2023-02-28T07:25:42.409Z,1.82
2023-02-28T07:26:42.421Z,1.80
2023-02-28T07:27:42.388Z,1.94
2023-02-28T07:28:43.398Z,1.91
2023-02-28T07:29:42.358Z,1.91
2023-02-28T07:30:42.360Z,2.02
2023-02-28T07:31:42.403Z,2.10
2023-02-28T07:32:44.750Z,1.99
2023-02-28T07:33:43.374Z,2.15
2023-02-28T07:34:42.865Z,2.16
2023-02-28T07:35:42.324Z,2.01
2023-02-28T07:36:42.302Z,2.10
2023-02-28T07:37:42.292Z,2.09
2023-02-28T07:38:42.335Z,2.04
2023-02-28T07:39:42.273Z,1.94
2023-02-28T07:40:42.529Z,1.98
2023-02-28T07:41:42.251Z,2.02
2023-02-28T07:42:42.241Z,2.12
2023-02-28T07:43:42.270Z,2.09
2023-02-28T07:44:42.224Z,2.09
2023-02-28T07:45:42.212Z,2.26
2023-02-28T07:46:42.242Z,2.23
2023-02-28T07:47:42.195Z,2.20
2023-02-28T07:48:42.192Z,2.27
2023-02-28T07:49:42.161Z,2.23
2023-02-28T07:50:43.176Z,2.22
2023-02-28T07:51:42.146Z,2.22
2023-02-28T07:52:42.155Z,2.17
2023-02-28T07:53:42.174Z,2.35
2023-02-28T07:54:42.130Z,2.35
2023-02-28T07:55:42.109Z,2.26
2023-02-28T07:56:42.105Z,2.41
2023-02-28T07:57:42.108Z,2.34
2023-02-28T07:58:42.078Z,2.33
2023-02-28T07:59:42.059Z,2.38
2023-02-28T08:00:42.100Z,2.51
2023-02-28T08:01:42.052Z,2.49
2023-02-28T08:02:42.130Z,2.59
2023-02-28T08:03:42.053Z,2.66
2023-02-28T08:04:42.023Z,2.61
2023-02-28T08:05:41.985Z,2.49
2023-02-28T08:06:41.980Z,2.45
2023-02-28T08:07:41.981Z,2.49
2023-02-28T08:08:41.984Z,2.56
2023-02-28T08:09:41.956Z,2.71
2023-02-28T08:10:41.924Z,2.73
2023-02-28T08:11:41.953Z,2.58
2023-02-28T08:12:41.916Z,2.63
2023-02-28T08:13:41.940Z,2.81
2023-02-28T08:14:41.909Z,2.76
2023-02-28T08:15:41.900Z,2.79
2023-02-28T08:16:41.878Z,2.91
2023-02-28T08:17:41.898Z,2.89
2023-02-28T08:18:41.919Z,2.98
2023-02-28T08:19:41.872Z,2.94
2023-02-28T08:20:41.878Z,3.02
2023-02-28T08:21:41.863Z,2.97
2023-02-28T08:22:43.662Z,2.87
2023-02-28T08:23:41.829Z,2.84
2023-02-28T08:24:41.803Z,2.98
2023-02-28T08:25:41.834Z,3.00
2023-02-28T08:26:41.782Z,2.94
2023-02-28T08:27:41.819Z,3.06
2023-02-28T08:28:41.773Z,3.00
2023-02-28T08:29:41.767Z,3.15
2023-02-28T08:30:41.737Z,3.25
2023-02-28T08:31:41.750Z,3.25
2023-02-28T08:32:41.826Z,3.23
2023-02-28T08:33:41.728Z,3.18
2023-02-28T08:34:41.700Z,2.98
2023-02-28T08:35:41.773Z,3.03
2023-02-28T08:36:41.791Z,3.02
2023-02-28T08:37:41.705Z,2.91
2023-02-28T08:38:41.685Z,2.87
2023-02-28T08:39:41.693Z,2.95
2023-02-28T08:40:41.688Z,2.89
2023-02-28T08:41:41.659Z,2.79
2023-02-28T08:42:41.630Z,2.74
2023-02-28T08:43:41.684Z,2.73
2023-02-28T08:44:41.662Z,3.06
2023-02-28T08:45:41.666Z,3.02
2023-02-28T08:46:41.606Z,3.28
2023-02-28T08:47:41.580Z,3.44
2023-02-28T08:48:41.606Z,3.46
2023-02-28T08:49:41.573Z,3.78
2023-02-28T08:50:42.107Z,3.82
2023-02-28T08:51:41.533Z,3.86
2023-02-28T08:52:41.550Z,3.57
2023-02-28T08:53:41.544Z,3.42
2023-02-28T08:54:41.516Z,3.34
2023-02-28T08:55:41.503Z,3.31
2023-02-28T08:56:41.474Z,3.53
2023-02-28T08:57:41.503Z,3.49
2023-02-28T08:58:41.487Z,3.34
2023-02-28T08:59:41.474Z,3.36
2023-02-28T09:00:41.901Z,3.44
2023-02-28T09:01:41.407Z,3.44
2023-02-28T09:02:41.419Z,3.61
2023-02-28T09:03:41.467Z,3.76
2023-02-28T09:04:41.397Z,3.97
2023-02-28T09:05:41.398Z,4.10
2023-02-28T09:06:41.360Z,4.18
2023-02-28T09:07:41.360Z,4.16
2023-02-28T09:08:41.352Z,4.01
2023-02-28T09:09:41.316Z,3.94
2023-02-28T09:10:41.355Z,4.08
2023-02-28T09:11:41.285Z,4.14
2023-02-28T09:12:41.336Z,4.44
2023-02-28T09:13:41.323Z,4.40
2023-02-28T09:14:41.298Z,4.51
2023-02-28T09:15:41.286Z,4.72
2023-02-28T09:16:41.309Z,5.01
2023-02-28T09:17:41.258Z,5.04
2023-02-28T09:18:41.239Z,5.02
2023-02-28T09:19:41.264Z,4.64
2023-02-28T09:20:41.459Z,3.97
2023-02-28T09:21:41.248Z,3.92
2023-02-28T09:22:41.209Z,4.58
2023-02-28T09:23:41.201Z,5.31
2023-02-28T09:25:42.198Z,5.01
2023-02-28T09:26:43.453Z,4.43
2023-02-28T09:27:43.189Z,3.94
2023-02-28T09:28:42.150Z,3.78
2023-02-28T09:29:41.175Z,3.68
2023-02-28T09:30:41.181Z,3.72
2023-02-28T09:31:41.161Z,3.75
2023-02-28T09:32:41.102Z,4.54
2023-02-28T09:33:41.146Z,4.44
2023-02-28T09:34:41.207Z,4.36
2023-02-28T09:35:41.086Z,4.37
2023-02-28T09:36:45.885Z,4.12
2023-02-28T09:37:43.082Z,4.15
2023-02-28T09:38:41.026Z,4.19
2023-02-28T09:39:41.038Z,4.22
2023-02-28T09:40:41.021Z,4.14
2023-02-28T09:41:41.012Z,4.28
2023-02-28T09:42:41.002Z,3.97
2023-02-28T09:43:40.974Z,4.01
2023-02-28T09:44:41.956Z,4.04
2023-02-28T09:45:41.049Z,3.86
2023-02-28T09:46:40.990Z,4.79
2023-02-28T09:47:40.995Z,4.65
2023-02-28T09:48:41.331Z,4.34
2023-02-28T09:49:41.940Z,4.22
2023-02-28T09:50:40.921Z,3.92
2023-02-28T09:51:40.910Z,3.80
2023-02-28T09:52:40.922Z,3.83
2023-02-28T09:53:41.060Z,3.79
2023-02-28T09:54:40.954Z,3.80
2023-02-28T09:55:46.616Z,3.80
2023-02-28T09:56:42.861Z,3.78
2023-02-28T09:57:40.828Z,3.78
2023-02-28T09:58:40.824Z,3.72
2023-02-28T09:59:40.817Z,3.72
2023-02-28T10:00:40.775Z,3.60
2023-02-28T10:01:40.812Z,3.72
2023-02-28T10:02:40.803Z,3.76
2023-02-28T10:03:40.857Z,3.85
2023-02-28T10:04:40.905Z,3.80
2023-02-28T10:05:42.766Z,3.86
2023-02-28T10:06:40.756Z,3.86
2023-02-28T10:07:40.836Z,3.96
2023-02-28T10:08:40.830Z,4.00
2023-02-28T10:09:40.823Z,4.04
2023-02-28T10:10:40.724Z,3.89
2023-02-28T10:11:40.722Z,3.79
2023-02-28T10:12:40.676Z,3.96
2023-02-28T10:13:40.693Z,4.37
2023-02-28T10:14:40.697Z,5.46
2023-02-28T10:15:40.747Z,6.51
2023-02-28T10:16:40.656Z,7.50
2023-02-28T10:17:54.776Z,7.92
2023-02-28T10:18:41.630Z,8.12
2023-02-28T10:19:40.703Z,8.68
2023-02-28T10:20:41.623Z,8.11
2023-02-28T10:21:40.616Z,7.69
2023-02-28T10:22:40.687Z,7.67
2023-02-28T10:23:40.674Z,7.69
2023-02-28T10:24:40.592Z,8.55
2023-02-28T10:25:40.548Z,9.16
2023-02-28T10:26:40.567Z,8.68
2023-02-28T10:27:40.579Z,8.78
2023-02-28T10:28:40.524Z,9.10
2023-02-28T10:29:40.539Z,9.49
2023-02-28T10:30:40.521Z,9.58
2023-02-28T10:31:40.561Z,9.50
2023-02-28T10:32:40.501Z,9.40
2023-02-28T10:33:40.481Z,9.35
2023-02-28T10:34:40.472Z,8.69
2023-02-28T10:35:40.509Z,8.71
2023-02-28T10:36:40.440Z,9.57
2023-02-28T10:37:40.438Z,9.16
2023-02-28T10:38:40.446Z,7.35
2023-02-28T10:39:40.403Z,5.96
2023-02-28T10:40:40.435Z,5.52
2023-02-28T10:41:40.416Z,6.65
2023-02-28T10:42:40.416Z,7.84
2023-02-28T10:43:40.343Z,8.86
2023-02-28T10:44:40.338Z,9.04
2023-02-28T10:45:40.334Z,10.00
2023-02-28T10:46:40.355Z,10.44
2023-02-28T10:47:40.314Z,10.65
2023-02-28T10:48:40.294Z,11.17
2023-02-28T10:49:40.279Z,11.96
2023-02-28T10:50:40.277Z,11.41
2023-02-28T10:51:40.276Z,11.16
2023-02-28T10:52:40.248Z,11.29
2023-02-28T10:53:57.708Z,11.21
2023-02-28T10:54:42.237Z,11.38
2023-02-28T10:55:41.892Z,11.56
2023-02-28T10:56:40.356Z,11.82
2023-02-28T10:57:40.242Z,12.13
2023-02-28T10:58:40.210Z,12.66
2023-02-28T10:59:40.210Z,11.74
2023-02-28T11:00:41.547Z,10.78
2023-02-28T11:01:40.253Z,10.92
2023-02-28T11:02:40.219Z,11.39
2023-02-28T11:03:40.161Z,11.74
2023-02-28T11:04:41.340Z,12.06
2023-02-28T11:05:40.196Z,12.92
2023-02-28T11:06:40.166Z,13.15
2023-02-28T11:07:52.966Z,13.03
2023-02-28T11:08:42.114Z,13.44
2023-02-28T11:09:40.096Z,13.62
2023-02-28T11:10:40.137Z,13.76
2023-02-28T11:11:40.107Z,12.27
2023-02-28T11:12:47.277Z,12.48
2023-02-28T11:13:42.075Z,12.29
2023-02-28T11:14:40.079Z,12.77
2023-02-28T11:15:40.170Z,12.97
2023-02-28T11:16:40.120Z,13.71
2023-02-28T11:17:40.095Z,13.14
2023-02-28T11:18:40.064Z,12.64
2023-02-28T11:19:40.047Z,12.95
2023-02-28T11:20:40.040Z,13.03
2023-02-28T11:21:40.001Z,12.63
2023-02-28T11:22:40.038Z,11.56
2023-02-28T11:23:40.020Z,11.78
2023-02-28T11:24:39.990Z,11.57
2023-02-28T11:25:39.998Z,9.94
2023-02-28T11:26:39.971Z,10.14
2023-02-28T11:27:39.964Z,9.18
2023-02-28T11:28:39.936Z,8.76
2023-02-28T11:29:39.923Z,8.72
2023-02-28T11:30:39.972Z,10.10
2023-02-28T11:31:39.945Z,10.73
2023-02-28T11:32:39.982Z,11.59
2023-02-28T11:33:39.864Z,12.37
2023-02-28T11:34:39.884Z,13.03
2023-02-28T11:35:39.875Z,13.04
2023-02-28T11:36:39.859Z,12.54
2023-02-28T11:37:39.849Z,12.54
2023-02-28T11:38:39.830Z,13.04
2023-02-28T11:39:39.822Z,13.46
2023-02-28T11:40:39.830Z,13.49
2023-02-28T11:41:41.400Z,13.61
2023-02-28T11:42:40.803Z,14.28
2023-02-28T11:43:39.779Z,14.07
2023-02-28T11:44:39.790Z,13.58
2023-02-28T11:45:39.750Z,13.92
2023-02-28T11:46:40.781Z,14.38
2023-02-28T11:47:39.740Z,14.53
2023-02-28T11:48:39.741Z,14.67
2023-02-28T11:49:39.729Z,13.69
2023-02-28T11:50:39.745Z,13.88
2023-02-28T11:51:39.719Z,12.77
2023-02-28T11:52:39.690Z,12.67
2023-02-28T11:53:39.693Z,11.78
2023-02-28T11:54:39.692Z,12.24
2023-02-28T11:55:39.710Z,13.20
2023-02-28T11:56:39.690Z,13.80
2023-02-28T11:57:39.613Z,14.37
2023-02-28T11:58:39.648Z,14.46
2023-02-28T11:59:39.659Z,14.28
2023-02-28T12:00:39.610Z,14.64
2023-02-28T12:01:39.612Z,14.16
2023-02-28T12:02:39.673Z,14.50
2023-02-28T12:03:39.662Z,13.87
2023-02-28T12:04:39.605Z,13.58
2023-02-28T12:05:39.601Z,13.69
2023-02-28T12:06:39.544Z,13.65
2023-02-28T12:07:39.563Z,13.56
2023-02-28T12:08:39.535Z,13.14
2023-02-28T12:09:39.548Z,13.30
2023-02-28T12:10:40.176Z,13.09
2023-02-28T12:11:39.545Z,12.82
2023-02-28T12:12:39.522Z,13.62
2023-02-28T12:13:39.497Z,13.79
2023-02-28T12:14:39.491Z,13.91
2023-02-28T12:15:39.494Z,14.04
2023-02-28T12:16:39.513Z,14.46
2023-02-28T12:17:39.473Z,13.92
2023-02-28T12:18:39.473Z,13.79
2023-02-28T12:19:39.461Z,14.31
2023-02-28T12:20:39.438Z,14.75
2023-02-28T12:21:39.460Z,14.78
2023-02-28T12:22:39.436Z,14.87
2023-02-28T12:23:39.389Z,15.45
2023-02-28T12:24:39.394Z,14.98
2023-02-28T12:25:39.398Z,14.42
2023-02-28T12:26:39.390Z,14.01
2023-02-28T12:27:39.383Z,14.07
2023-02-28T12:28:39.405Z,15.17
2023-02-28T12:29:39.313Z,15.36
2023-02-28T12:30:39.331Z,15.88
2023-02-28T12:31:39.431Z,16.63
2023-02-28T12:32:39.380Z,16.33
2023-02-28T12:33:39.296Z,16.65
2023-02-28T12:34:39.271Z,17.08
2023-02-28T12:35:40.267Z,16.25
2023-02-28T12:36:39.244Z,15.43
2023-02-28T12:37:39.216Z,14.25
2023-02-28T12:38:39.187Z,13.84
2023-02-28T12:39:50.459Z,14.12
2023-02-28T12:40:40.154Z,14.46
2023-02-28T12:41:39.195Z,14.43
2023-02-28T12:43:47.291Z,14.72
2023-02-28T12:44:26.499Z,13.99
2023-02-28T12:45:13.948Z,14.32
2023-02-28T12:46:09.489Z,15.33
2023-02-28T12:46:41.096Z,15.41
2023-02-28T12:47:39.114Z,14.46
2023-02-28T12:48:39.214Z,13.83
2023-02-28T12:49:45.455Z,13.46
2023-02-28T12:51:40.133Z,14.12
2023-02-28T12:52:39.127Z,14.07
2023-02-28T12:53:39.078Z,14.24
2023-02-28T12:54:39.085Z,14.07
2023-02-28T12:55:39.113Z,13.58
2023-02-28T12:56:39.038Z,13.80
2023-02-28T12:57:39.018Z,14.53
2023-02-28T12:58:39.049Z,14.75
2023-02-28T12:59:39.001Z,14.74
2023-02-28T13:00:38.990Z,14.46
2023-02-28T13:01:39.111Z,14.54
2023-02-28T13:02:39.066Z,14.47
2023-02-28T13:03:38.958Z,13.88
2023-02-28T13:04:38.935Z,13.87
2023-02-28T13:05:40.023Z,13.47
2023-02-28T13:06:38.939Z,13.17
2023-02-28T13:07:38.932Z,12.67
2023-02-28T13:08:40.021Z,12.74
2023-02-28T13:09:39.900Z,12.88
2023-02-28T13:10:38.870Z,13.02
2023-02-28T13:11:39.894Z,13.22
2023-02-28T13:12:38.883Z,13.81
2023-02-28T13:13:38.856Z,14.10
2023-02-28T13:14:38.840Z,14.24
2023-02-28T13:15:38.850Z,13.80
2023-02-28T13:16:38.866Z,14.12
2023-02-28T13:17:38.809Z,14.50
2023-02-28T13:18:38.812Z,14.06
2023-02-28T13:19:38.819Z,13.37
2023-02-28T13:20:38.856Z,13.04
2023-02-28T13:21:38.783Z,13.65
2023-02-28T13:22:38.791Z,14.01